createdAt,value
2017-03-29T00:00:55.004Z,0
2017-03-29T00:01:54.689Z,0
2017-03-29T00:02:55.030Z,0
2017-03-29T00:03:55.074Z,0
2017-03-29T00:04:54.737Z,0
2017-03-29T00:05:55.068Z,0
2017-03-29T00:06:55.135Z,0
2017-03-29T00:07:55.099Z,0
2017-03-29T00:08:55.102Z,0
2017-03-29T00:09:54.817Z,0
2017-03-29T00:10:54.859Z,0
2017-03-29T00:11:55.318Z,0
2017-03-29T00:12:55.286Z,0
2017-03-29T00:13:54.925Z,0
2017-03-29T00:14:55.346Z,0
2017-03-29T00:15:55.328Z,0
2017-03-29T00:16:55.335Z,0
2017-03-29T00:17:55.345Z,0
2017-03-29T00:18:55.370Z,0
2017-03-29T00:19:55.064Z,0
2017-03-29T00:20:55.081Z,0
2017-03-29T00:21:55.370Z,0
2017-03-29T00:22:54.800Z,0
2017-03-29T00:23:55.524Z,0
2017-03-29T00:24:55.156Z,0
2017-03-29T00:25:55.572Z,0
2017-03-29T00:26:55.579Z,0
2017-03-29T00:27:55.591Z,0
2017-03-29T00:28:55.278Z,0
2017-03-29T00:29:55.620Z,0
2017-03-29T00:30:55.338Z,0
2017-03-29T00:31:55.340Z,0
2017-03-29T00:32:55.347Z,0
2017-03-29T00:33:55.493Z,0
2017-03-29T00:34:55.656Z,0
2017-03-29T00:35:55.363Z,0
2017-03-29T00:36:55.376Z,0
2017-03-29T00:37:55.673Z,0
2017-03-29T00:38:55.728Z,0
2017-03-29T00:39:55.720Z,0
2017-03-29T00:40:55.787Z,0
2017-03-29T00:41:55.782Z,0
2017-03-29T00:42:55.145Z,0
2017-03-29T00:43:55.484Z,0
2017-03-29T00:44:55.598Z,0
2017-03-29T00:45:55.866Z,0
2017-03-29T00:46:55.627Z,0
2017-03-29T00:47:55.886Z,0
2017-03-29T00:48:55.924Z,0
2017-03-29T00:49:55.936Z,0
2017-03-29T00:50:55.977Z,0
2017-03-29T00:51:55.964Z,0
2017-03-29T00:52:55.673Z,0
2017-03-29T00:53:56.002Z,0
2017-03-29T00:54:56.055Z,0
2017-03-29T00:55:55.723Z,0
2017-03-29T00:56:56.058Z,0
2017-03-29T00:57:55.786Z,0
2017-03-29T00:58:55.835Z,0
2017-03-29T00:59:56.188Z,0
2017-03-29T01:00:55.816Z,0
2017-03-29T01:01:56.176Z,0
2017-03-29T01:02:56.211Z,0
2017-03-29T01:03:56.195Z,0
2017-03-29T01:04:56.208Z,0
2017-03-29T01:05:56.234Z,0
2017-03-29T01:06:56.237Z,0
2017-03-29T01:07:56.311Z,0
2017-03-29T01:08:56.270Z,0
2017-03-29T01:09:56.283Z,0
2017-03-29T01:10:56.308Z,0
2017-03-29T01:11:56.054Z,0
2017-03-29T01:12:56.352Z,0
2017-03-29T01:13:56.363Z,0
2017-03-29T01:14:56.095Z,0
2017-03-29T01:15:56.128Z,0
2017-03-29T01:16:56.499Z,0
2017-03-29T01:17:56.441Z,0
2017-03-29T01:18:56.523Z,0
2017-03-29T01:19:56.200Z,0
2017-03-29T01:20:56.514Z,0
2017-03-29T01:21:56.550Z,0
2017-03-29T01:22:56.261Z,0
2017-03-29T01:23:56.570Z,0
2017-03-29T01:24:56.266Z,0
2017-03-29T01:25:56.664Z,0
2017-03-29T01:26:56.303Z,0
2017-03-29T01:27:56.326Z,0
2017-03-29T01:28:56.781Z,0
2017-03-29T01:29:56.409Z,0
2017-03-29T01:30:56.696Z,0
2017-03-29T01:31:56.760Z,0
2017-03-29T01:32:56.476Z,0
2017-03-29T01:33:56.774Z,0
2017-03-29T01:34:56.855Z,0
2017-03-29T01:35:56.870Z,0
2017-03-29T01:36:56.859Z,0
2017-03-29T01:37:56.522Z,0
2017-03-29T01:38:56.863Z,0
2017-03-29T01:39:56.882Z,0
2017-03-29T01:40:56.900Z,0
2017-03-29T01:41:56.930Z,0
2017-03-29T01:42:56.653Z,0
2017-03-29T01:43:56.968Z,0
2017-03-29T01:44:56.976Z,0
2017-03-29T01:45:56.684Z,0
2017-03-29T01:46:56.722Z,0
2017-03-29T01:47:57.123Z,0
2017-03-29T01:48:57.160Z,0
2017-03-29T01:49:57.088Z,0
2017-03-29T01:50:57.119Z,0
2017-03-29T01:51:57.224Z,0
2017-03-29T01:52:57.171Z,0
2017-03-29T01:53:56.829Z,0
2017-03-29T01:54:56.870Z,0
2017-03-29T01:55:57.292Z,0
2017-03-29T01:56:57.299Z,0
2017-03-29T01:57:57.308Z,0
2017-03-29T01:58:57.313Z,0
2017-03-29T01:59:56.658Z,0
2017-03-29T02:00:57.321Z,0
2017-03-29T02:01:57.347Z,0
2017-03-29T02:02:57.478Z,0
2017-03-29T02:03:57.359Z,0
2017-03-29T02:04:57.086Z,0
2017-03-29T02:05:57.493Z,0
2017-03-29T02:06:57.426Z,0
2017-03-29T02:07:57.432Z,0
2017-03-29T02:08:57.747Z,0
2017-03-29T02:09:57.244Z,0
2017-03-29T02:10:57.251Z,0
2017-03-29T02:11:57.298Z,0
2017-03-29T02:12:57.760Z,0
2017-03-29T02:13:57.785Z,0
2017-03-29T02:14:57.316Z,0
2017-03-29T02:15:57.779Z,0
2017-03-29T02:16:56.968Z,0
2017-03-29T02:17:57.802Z,0
2017-03-29T02:18:57.796Z,0
2017-03-29T02:19:57.841Z,0
2017-03-29T02:20:57.415Z,0
2017-03-29T02:21:57.860Z,0
2017-03-29T02:22:57.858Z,0
2017-03-29T02:23:57.085Z,0
2017-03-29T02:24:57.226Z,0
2017-03-29T02:25:57.572Z,0
2017-03-29T02:26:57.551Z,0
2017-03-29T02:27:57.904Z,0
2017-03-29T02:28:57.906Z,0
2017-03-29T02:29:57.910Z,0
2017-03-29T02:30:57.919Z,0
2017-03-29T02:31:57.888Z,0
2017-03-29T02:32:57.370Z,0
2017-03-29T02:33:57.905Z,0
2017-03-29T02:34:57.613Z,0
2017-03-29T02:35:57.716Z,0
2017-03-29T02:36:57.995Z,0
2017-03-29T02:37:57.830Z,0
2017-03-29T02:38:57.700Z,0
2017-03-29T02:39:57.890Z,0
2017-03-29T02:40:58.043Z,0
2017-03-29T02:41:57.907Z,0
2017-03-29T02:42:58.074Z,0
2017-03-29T02:43:57.553Z,0
2017-03-29T02:44:57.797Z,0
2017-03-29T02:45:58.134Z,0
2017-03-29T02:46:58.151Z,0
2017-03-29T02:47:58.179Z,0
2017-03-29T02:48:58.192Z,0
2017-03-29T02:49:57.898Z,0
2017-03-29T02:50:58.253Z,0
2017-03-29T02:51:58.463Z,0
2017-03-29T02:52:58.303Z,0
2017-03-29T02:53:57.980Z,0
2017-03-29T02:54:58.307Z,0
2017-03-29T02:55:58.336Z,0
2017-03-29T02:56:58.035Z,0
2017-03-29T02:57:58.602Z,0
2017-03-29T02:58:57.882Z,0
2017-03-29T02:59:58.294Z,0
2017-03-29T03:00:57.993Z,0
2017-03-29T03:01:58.630Z,0
2017-03-29T03:02:58.330Z,0
2017-03-29T03:03:58.635Z,0
2017-03-29T03:04:58.649Z,0
2017-03-29T03:05:58.324Z,0
2017-03-29T03:06:58.646Z,0
2017-03-29T03:07:58.349Z,0
2017-03-29T03:08:58.706Z,0
2017-03-29T03:09:58.700Z,0
2017-03-29T03:10:58.395Z,0
2017-03-29T03:11:58.712Z,0
2017-03-29T03:12:58.412Z,0
2017-03-29T03:13:58.115Z,0
2017-03-29T03:14:58.465Z,0
2017-03-29T03:15:58.842Z,0
2017-03-29T03:16:58.794Z,0
2017-03-29T03:17:58.176Z,0
2017-03-29T03:18:58.833Z,0
2017-03-29T03:19:58.714Z,0
2017-03-29T03:20:58.845Z,0
2017-03-29T03:21:57.885Z,0
2017-03-29T03:22:58.504Z,0
2017-03-29T03:23:58.840Z,0
2017-03-29T03:24:58.548Z,0
2017-03-29T03:25:58.585Z,0
2017-03-29T03:26:58.581Z,0
2017-03-29T03:27:58.605Z,0
2017-03-29T03:28:58.934Z,0
2017-03-29T03:29:58.950Z,0
2017-03-29T03:30:58.974Z,0
2017-03-29T03:31:58.714Z,0
2017-03-29T03:32:59.010Z,0
2017-03-29T03:33:58.729Z,0
2017-03-29T03:34:58.735Z,0
2017-03-29T03:35:58.753Z,0
2017-03-29T03:36:59.079Z,0
2017-03-29T03:37:59.105Z,0
2017-03-29T03:38:58.812Z,0
2017-03-29T03:39:58.830Z,0
2017-03-29T03:40:59.166Z,0
2017-03-29T03:41:58.870Z,0
2017-03-29T03:42:58.885Z,0
2017-03-29T03:43:58.912Z,0
2017-03-29T03:44:59.229Z,0
2017-03-29T03:45:58.625Z,0
2017-03-29T03:46:59.270Z,0
2017-03-29T03:47:58.966Z,0
2017-03-29T03:48:59.312Z,0
2017-03-29T03:49:59.363Z,0
2017-03-29T03:50:58.809Z,0
2017-03-29T03:51:59.599Z,0
2017-03-29T03:52:59.211Z,0
2017-03-29T03:53:59.197Z,0
2017-03-29T03:54:59.207Z,0
2017-03-29T03:55:59.582Z,0
2017-03-29T03:56:59.239Z,0
2017-03-29T03:57:59.248Z,0
2017-03-29T03:58:59.656Z,0
2017-03-29T03:59:58.746Z,0
2017-03-29T04:00:59.696Z,0
2017-03-29T04:01:59.690Z,0
2017-03-29T04:02:59.741Z,0
2017-03-29T04:03:59.603Z,0
2017-03-29T04:04:59.610Z,0
2017-03-29T04:05:59.324Z,0
2017-03-29T04:06:59.343Z,0
2017-03-29T04:07:59.652Z,0
2017-03-29T04:08:59.679Z,0
2017-03-29T04:09:59.692Z,0
2017-03-29T04:10:59.402Z,0
2017-03-29T04:11:59.726Z,0
2017-03-29T04:12:59.432Z,0
2017-03-29T04:13:59.761Z,0
2017-03-29T04:14:59.168Z,0
2017-03-29T04:15:59.182Z,0
2017-03-29T04:16:59.732Z,0
2017-03-29T04:17:59.955Z,0
2017-03-29T04:18:59.796Z,0
2017-03-29T04:20:00.104Z,0
2017-03-29T04:20:59.704Z,0
2017-03-29T04:21:59.912Z,0
2017-03-29T04:22:59.623Z,0
2017-03-29T04:23:59.645Z,0
2017-03-29T04:24:59.970Z,0
2017-03-29T04:25:59.986Z,0
2017-03-29T04:27:00.005Z,0
2017-03-29T04:27:59.410Z,0
2017-03-29T04:28:59.418Z,0
2017-03-29T04:30:00.079Z,0
2017-03-29T04:30:59.767Z,0
2017-03-29T04:32:00.118Z,0
2017-03-29T04:32:59.800Z,0
2017-03-29T04:33:59.847Z,0
2017-03-29T04:35:00.151Z,4
2017-03-29T04:36:00.195Z,4
2017-03-29T04:36:59.880Z,4
2017-03-29T04:38:00.202Z,0
2017-03-29T04:39:00.253Z,4
2017-03-29T04:40:00.236Z,4
2017-03-29T04:40:59.950Z,4
2017-03-29T04:42:00.384Z,4
2017-03-29T04:42:59.997Z,8
2017-03-29T04:44:00.309Z,4
2017-03-29T04:45:00.021Z,8
2017-03-29T04:46:00.035Z,12
2017-03-29T04:47:00.043Z,12
2017-03-29T04:48:00.176Z,12
2017-03-29T04:49:00.387Z,12
2017-03-29T04:50:00.212Z,16
2017-03-29T04:51:00.432Z,20
2017-03-29T04:52:00.451Z,20
2017-03-29T04:52:59.848Z,24
2017-03-29T04:54:00.251Z,24
2017-03-29T04:55:00.505Z,24
2017-03-29T04:56:00.529Z,28
2017-03-29T04:57:00.000Z,28
2017-03-29T04:58:00.010Z,32
2017-03-29T04:59:00.585Z,32
2017-03-29T05:00:00.321Z,36
2017-03-29T05:01:00.630Z,40
2017-03-29T05:02:00.333Z,48
2017-03-29T05:03:00.347Z,48
2017-03-29T05:04:00.357Z,52
2017-03-29T05:05:00.683Z,56
2017-03-29T05:06:00.965Z,60
2017-03-29T05:07:00.303Z,60
2017-03-29T05:08:00.431Z,68
2017-03-29T05:09:00.752Z,72
2017-03-29T05:10:00.461Z,76
2017-03-29T05:11:00.785Z,80
2017-03-29T05:12:00.495Z,88
2017-03-29T05:13:00.280Z,84
2017-03-29T05:14:00.540Z,84
2017-03-29T05:15:00.552Z,84
2017-03-29T05:16:00.577Z,84
2017-03-29T05:17:00.378Z,92
2017-03-29T05:18:00.920Z,96
2017-03-29T05:19:00.322Z,96
2017-03-29T05:20:00.956Z,100
2017-03-29T05:21:00.681Z,108
2017-03-29T05:22:00.685Z,112
2017-03-29T05:23:00.377Z,116
2017-03-29T05:24:00.701Z,124
2017-03-29T05:25:01.041Z,144
2017-03-29T05:26:00.756Z,164
2017-03-29T05:27:00.450Z,180
2017-03-29T05:28:01.096Z,200
2017-03-29T05:29:01.098Z,164
2017-03-29T05:30:01.119Z,140
2017-03-29T05:31:01.132Z,148
2017-03-29T05:32:01.156Z,156
2017-03-29T05:33:01.178Z,172
2017-03-29T05:34:01.199Z,184
2017-03-29T05:35:01.208Z,196
2017-03-29T05:36:01.227Z,212
2017-03-29T05:37:01.239Z,196
2017-03-29T05:38:01.262Z,188
2017-03-29T05:39:01.322Z,200
2017-03-29T05:40:01.307Z,208
2017-03-29T05:41:01.331Z,216
2017-03-29T05:42:01.059Z,228
2017-03-29T05:43:01.353Z,232
2017-03-29T05:44:01.374Z,228
2017-03-29T05:45:01.390Z,220
2017-03-29T05:46:01.412Z,216
2017-03-29T05:47:01.418Z,208
2017-03-29T05:48:01.444Z,212
2017-03-29T05:49:01.151Z,236
2017-03-29T05:50:01.481Z,256
2017-03-29T05:51:01.500Z,252
2017-03-29T05:52:01.507Z,252
2017-03-29T05:53:01.527Z,268
2017-03-29T05:54:01.548Z,268
2017-03-29T05:55:01.572Z,296
2017-03-29T05:56:01.584Z,328
2017-03-29T05:57:01.601Z,360
2017-03-29T05:58:01.617Z,400
2017-03-29T05:59:01.640Z,440
2017-03-29T06:00:01.655Z,476
2017-03-29T06:01:01.679Z,492
2017-03-29T06:02:01.838Z,496
2017-03-29T06:03:01.706Z,484
2017-03-29T06:04:01.412Z,488
2017-03-29T06:05:01.748Z,468
2017-03-29T06:06:01.758Z,448
2017-03-29T06:07:01.798Z,436
2017-03-29T06:08:01.801Z,472
2017-03-29T06:09:01.983Z,488
2017-03-29T06:10:01.840Z,464
2017-03-29T06:11:01.849Z,464
2017-03-29T06:12:01.896Z,448
2017-03-29T06:13:02.006Z,460
2017-03-29T06:14:02.012Z,448
2017-03-29T06:15:02.023Z,384
2017-03-29T06:16:02.044Z,304
2017-03-29T06:17:02.053Z,272
2017-03-29T06:18:01.976Z,268
2017-03-29T06:19:02.106Z,268
2017-03-29T06:20:01.694Z,280
2017-03-29T06:21:02.137Z,300
2017-03-29T06:22:02.147Z,320
2017-03-29T06:23:02.154Z,320
2017-03-29T06:24:02.163Z,316
2017-03-29T06:25:02.125Z,308
2017-03-29T06:26:02.251Z,316
2017-03-29T06:27:02.249Z,328
2017-03-29T06:28:02.340Z,328
2017-03-29T06:29:01.975Z,348
2017-03-29T06:30:01.972Z,356
2017-03-29T06:31:02.400Z,340
2017-03-29T06:32:01.914Z,344
2017-03-29T06:33:02.243Z,336
2017-03-29T06:34:02.258Z,312
2017-03-29T06:35:02.070Z,296
2017-03-29T06:36:02.301Z,296
2017-03-29T06:37:02.320Z,296
2017-03-29T06:38:02.358Z,296
2017-03-29T06:39:02.348Z,304
2017-03-29T06:40:02.376Z,304
2017-03-29T06:41:02.390Z,312
2017-03-29T06:42:02.407Z,312
2017-03-29T06:43:02.429Z,316
2017-03-29T06:44:02.447Z,312
2017-03-29T06:45:02.464Z,316
2017-03-29T06:46:02.480Z,320
2017-03-29T06:47:02.216Z,320
2017-03-29T06:48:02.519Z,328
2017-03-29T06:49:02.538Z,336
2017-03-29T06:50:02.575Z,344
2017-03-29T06:51:02.597Z,352
2017-03-29T06:52:02.588Z,368
2017-03-29T06:53:02.639Z,376
2017-03-29T06:54:02.636Z,388
2017-03-29T06:55:02.650Z,396
2017-03-29T06:56:02.446Z,416
2017-03-29T06:57:02.366Z,432
2017-03-29T06:58:02.388Z,464
2017-03-29T06:59:02.716Z,508
2017-03-29T07:00:02.743Z,552
2017-03-29T07:01:02.437Z,600
2017-03-29T07:02:02.499Z,660
2017-03-29T07:03:02.194Z,720
2017-03-29T07:04:02.546Z,772
2017-03-29T07:05:03.178Z,800
2017-03-29T07:06:02.857Z,832
2017-03-29T07:07:02.693Z,852
2017-03-29T07:08:02.883Z,860
2017-03-29T07:09:02.894Z,848
2017-03-29T07:10:02.936Z,824
2017-03-29T07:11:02.933Z,808
2017-03-29T07:12:02.963Z,764
2017-03-29T07:13:02.976Z,752
2017-03-29T07:14:02.995Z,748
2017-03-29T07:15:03.013Z,732
2017-03-29T07:16:03.033Z,724
2017-03-29T07:17:03.244Z,744
2017-03-29T07:18:03.075Z,728
2017-03-29T07:19:03.081Z,720
2017-03-29T07:20:03.111Z,724
2017-03-29T07:21:03.115Z,716
2017-03-29T07:22:03.144Z,688
2017-03-29T07:23:03.155Z,712
2017-03-29T07:24:03.185Z,740
2017-03-29T07:25:03.194Z,760
2017-03-29T07:26:03.226Z,752
2017-03-29T07:27:03.229Z,708
2017-03-29T07:28:02.630Z,700
2017-03-29T07:29:02.977Z,696
2017-03-29T07:30:03.294Z,712
2017-03-29T07:31:03.426Z,748
2017-03-29T07:32:03.431Z,768
2017-03-29T07:33:03.479Z,796
2017-03-29T07:34:03.375Z,816
2017-03-29T07:35:03.371Z,812
2017-03-29T07:36:03.402Z,768
2017-03-29T07:37:03.433Z,708
2017-03-29T07:38:03.177Z,632
2017-03-29T07:39:03.550Z,560
2017-03-29T07:40:03.511Z,544
2017-03-29T07:41:03.493Z,564
2017-03-29T07:42:03.515Z,600
2017-03-29T07:43:03.527Z,612
2017-03-29T07:44:03.541Z,560
2017-03-29T07:45:03.560Z,536
2017-03-29T07:46:03.591Z,552
2017-03-29T07:47:03.600Z,584
2017-03-29T07:48:03.630Z,632
2017-03-29T07:49:03.641Z,676
2017-03-29T07:50:03.653Z,724
2017-03-29T07:51:03.773Z,744
2017-03-29T07:52:03.784Z,740
2017-03-29T07:53:03.912Z,744
2017-03-29T07:54:04.324Z,748
2017-03-29T07:55:03.937Z,732
2017-03-29T07:56:03.952Z,732
2017-03-29T07:57:03.956Z,736
2017-03-29T07:58:03.958Z,744
2017-03-29T07:59:03.979Z,772
2017-03-29T08:00:03.996Z,808
2017-03-29T08:01:04.072Z,840
2017-03-29T08:02:03.988Z,872
2017-03-29T08:03:03.949Z,912
2017-03-29T08:04:03.964Z,948
2017-03-29T08:05:03.774Z,948
2017-03-29T08:06:03.980Z,928
2017-03-29T08:07:03.985Z,916
2017-03-29T08:08:03.793Z,920
2017-03-29T08:09:03.795Z,916
2017-03-29T08:10:04.041Z,956
2017-03-29T08:11:03.941Z,1028
2017-03-29T08:12:03.957Z,1156
2017-03-29T08:13:04.088Z,1380
2017-03-29T08:14:04.161Z,1576
2017-03-29T08:15:04.128Z,1644
2017-03-29T08:16:04.162Z,1644
2017-03-29T08:17:04.165Z,1616
2017-03-29T08:18:04.184Z,1560
2017-03-29T08:19:04.242Z,1420
2017-03-29T08:20:04.218Z,1356
2017-03-29T08:21:04.244Z,1400
2017-03-29T08:22:03.945Z,1464
2017-03-29T08:23:04.360Z,1572
2017-03-29T08:24:04.383Z,1744
2017-03-29T08:25:04.429Z,1800
2017-03-29T08:26:04.435Z,1660
2017-03-29T08:27:04.442Z,1464
2017-03-29T08:28:04.441Z,1428
2017-03-29T08:29:04.137Z,1580
2017-03-29T08:30:04.462Z,1828
2017-03-29T08:31:04.123Z,1908
2017-03-29T08:32:04.576Z,2032
2017-03-29T08:33:04.567Z,2172
2017-03-29T08:34:04.615Z,2268
2017-03-29T08:35:04.627Z,2172
2017-03-29T08:36:04.545Z,2236
2017-03-29T08:37:04.568Z,2276
2017-03-29T08:38:04.784Z,2196
2017-03-29T08:39:04.591Z,2128
2017-03-29T08:40:04.301Z,2004
2017-03-29T08:41:04.639Z,2040
2017-03-29T08:42:04.651Z,2092
2017-03-29T08:43:04.669Z,2144
2017-03-29T08:44:04.685Z,2288
2017-03-29T08:45:04.710Z,2388
2017-03-29T08:46:04.734Z,2392
2017-03-29T08:47:04.750Z,2160
2017-03-29T08:48:04.769Z,1884
2017-03-29T08:49:04.784Z,1660
2017-03-29T08:50:04.807Z,1464
2017-03-29T08:51:04.830Z,1348
2017-03-29T08:52:04.850Z,1368
2017-03-29T08:53:04.863Z,1436
2017-03-29T08:54:04.896Z,1460
2017-03-29T08:55:04.905Z,1396
2017-03-29T08:56:04.932Z,1328
2017-03-29T08:57:04.955Z,1344
2017-03-29T08:58:04.656Z,1336
2017-03-29T08:59:04.989Z,1392
2017-03-29T09:00:05.208Z,1472
2017-03-29T09:01:05.030Z,1512
2017-03-29T09:02:05.048Z,1512
2017-03-29T09:03:05.071Z,1496
2017-03-29T09:04:05.089Z,1636
2017-03-29T09:05:05.235Z,1740
2017-03-29T09:06:05.246Z,1588
2017-03-29T09:07:05.256Z,1492
2017-03-29T09:08:05.276Z,1668
2017-03-29T09:09:05.287Z,1752
2017-03-29T09:10:04.979Z,1828
2017-03-29T09:11:05.304Z,1980
2017-03-29T09:12:05.308Z,2076
2017-03-29T09:13:04.965Z,2180
2017-03-29T09:14:05.067Z,2188
2017-03-29T09:15:05.388Z,2204
2017-03-29T09:16:05.395Z,2108
2017-03-29T09:17:05.394Z,1872
2017-03-29T09:18:05.392Z,1596
2017-03-29T09:19:05.513Z,1624
2017-03-29T09:20:05.245Z,1824
2017-03-29T09:21:05.536Z,1992
2017-03-29T09:22:05.585Z,2132
2017-03-29T09:23:05.568Z,2184
2017-03-29T09:24:05.460Z,2140
2017-03-29T09:25:05.652Z,1784
2017-03-29T09:26:05.379Z,1532
2017-03-29T09:27:05.660Z,1488
2017-03-29T09:28:05.528Z,1544
2017-03-29T09:29:05.810Z,1636
2017-03-29T09:30:05.509Z,1752
2017-03-29T09:31:05.830Z,1800
2017-03-29T09:32:05.593Z,1832
2017-03-29T09:33:05.487Z,1792
2017-03-29T09:34:05.587Z,1912
2017-03-29T09:35:05.859Z,1840
2017-03-29T09:36:05.571Z,1664
2017-03-29T09:37:05.555Z,1656
2017-03-29T09:38:05.837Z,1896
2017-03-29T09:39:05.861Z,1868
2017-03-29T09:40:05.528Z,1900
2017-03-29T09:41:05.859Z,2020
2017-03-29T09:42:05.554Z,2100
2017-03-29T09:43:05.900Z,1736
2017-03-29T09:44:05.929Z,2148
2017-03-29T09:45:05.610Z,2548
2017-03-29T09:46:05.962Z,2996
2017-03-29T09:47:05.965Z,3256
2017-03-29T09:48:05.994Z,3204
2017-03-29T09:49:06.009Z,3196
2017-03-29T09:50:05.290Z,2896
2017-03-29T09:51:06.046Z,2780
2017-03-29T09:52:06.093Z,2952
2017-03-29T09:53:06.105Z,2720
2017-03-29T09:54:06.113Z,2704
2017-03-29T09:55:06.139Z,2568
2017-03-29T09:56:05.844Z,2436
2017-03-29T09:57:06.174Z,2520
2017-03-29T09:58:06.214Z,2732
2017-03-29T09:59:06.223Z,2820
2017-03-29T10:00:06.303Z,2856
2017-03-29T10:01:06.291Z,2672
2017-03-29T10:02:05.984Z,2440
2017-03-29T10:03:06.306Z,2284
2017-03-29T10:04:06.328Z,2148
2017-03-29T10:05:06.348Z,2112
2017-03-29T10:06:06.086Z,2120
2017-03-29T10:07:05.765Z,2436
2017-03-29T10:08:06.411Z,2660
2017-03-29T10:09:06.426Z,2684
2017-03-29T10:10:06.674Z,2708
2017-03-29T10:11:06.678Z,2692
2017-03-29T10:12:06.685Z,2744
2017-03-29T10:13:06.297Z,2796
2017-03-29T10:14:06.760Z,2892
2017-03-29T10:15:06.745Z,3020
2017-03-29T10:16:06.748Z,3084
2017-03-29T10:17:06.762Z,2972
2017-03-29T10:18:06.456Z,2952
2017-03-29T10:19:06.772Z,2916
2017-03-29T10:20:06.358Z,2884
2017-03-29T10:21:06.373Z,2796
2017-03-29T10:22:06.707Z,2648
2017-03-29T10:23:06.742Z,2564
2017-03-29T10:24:06.755Z,2468
2017-03-29T10:25:06.769Z,2260
2017-03-29T10:26:06.803Z,2116
2017-03-29T10:27:06.818Z,1896
2017-03-29T10:28:06.841Z,1816
2017-03-29T10:29:06.862Z,1868
2017-03-29T10:30:06.577Z,2112
2017-03-29T10:31:06.901Z,2632
2017-03-29T10:32:06.927Z,2796
2017-03-29T10:33:06.642Z,2716
2017-03-29T10:34:06.971Z,2644
2017-03-29T10:35:06.995Z,2276
2017-03-29T10:36:07.119Z,2380
2017-03-29T10:37:07.127Z,2104
2017-03-29T10:38:06.752Z,1960
2017-03-29T10:39:07.130Z,2128
2017-03-29T10:40:07.145Z,2040
2017-03-29T10:41:07.147Z,2200
2017-03-29T10:42:07.156Z,1732
2017-03-29T10:43:07.173Z,1876
2017-03-29T10:44:07.393Z,1824
2017-03-29T10:45:06.996Z,1844
2017-03-29T10:46:06.915Z,1612
2017-03-29T10:47:07.350Z,1556
2017-03-29T10:48:07.089Z,2308
2017-03-29T10:49:07.419Z,1568
2017-03-29T10:50:07.561Z,1760
2017-03-29T10:51:07.567Z,1564
2017-03-29T10:52:07.264Z,1216
2017-03-29T10:53:07.514Z,876
2017-03-29T10:54:07.589Z,840
2017-03-29T10:55:07.594Z,816
2017-03-29T10:56:07.609Z,372
2017-03-29T10:57:07.617Z,380
2017-03-29T10:58:07.623Z,580
2017-03-29T10:59:07.302Z,576
2017-03-29T11:00:07.316Z,528
2017-03-29T11:01:07.473Z,716
2017-03-29T11:02:07.681Z,728
2017-03-29T11:03:07.382Z,872
2017-03-29T11:04:07.724Z,1160
2017-03-29T11:05:07.437Z,1160
2017-03-29T11:06:07.763Z,1544
2017-03-29T11:07:07.769Z,1356
2017-03-29T11:08:07.572Z,1024
2017-03-29T11:09:07.579Z,856
2017-03-29T11:10:07.719Z,864
2017-03-29T11:11:07.785Z,696
2017-03-29T11:12:07.174Z,880
2017-03-29T11:13:07.607Z,976
2017-03-29T11:14:07.747Z,968
2017-03-29T11:15:07.869Z,1024
2017-03-29T11:16:07.902Z,1076
2017-03-29T11:17:07.672Z,1484
2017-03-29T11:18:07.619Z,1324
2017-03-29T11:19:07.955Z,1028
2017-03-29T11:20:07.367Z,928
2017-03-29T11:21:08.001Z,1624
2017-03-29T11:22:08.034Z,1464
2017-03-29T11:23:07.735Z,1560
2017-03-29T11:24:08.067Z,2084
2017-03-29T11:25:07.774Z,2024
2017-03-29T11:26:08.102Z,2244
2017-03-29T11:27:07.511Z,2716
2017-03-29T11:28:08.180Z,2700
2017-03-29T11:29:08.176Z,2800
2017-03-29T11:30:07.585Z,2452
2017-03-29T11:31:08.236Z,1788
2017-03-29T11:32:08.240Z,1760
2017-03-29T11:33:07.949Z,2132
2017-03-29T11:34:08.308Z,1804
2017-03-29T11:35:08.312Z,1200
2017-03-29T11:36:08.337Z,1088
2017-03-29T11:37:08.032Z,1056
2017-03-29T11:38:08.377Z,1040
2017-03-29T11:39:08.391Z,900
2017-03-29T11:40:08.168Z,1056
2017-03-29T11:41:08.437Z,1676
2017-03-29T11:42:08.481Z,1564
2017-03-29T11:43:08.481Z,1332
2017-03-29T11:44:08.199Z,2052
2017-03-29T11:45:08.526Z,3072
2017-03-29T11:46:08.443Z,3420
2017-03-29T11:47:08.664Z,2664
2017-03-29T11:48:08.838Z,2304
2017-03-29T11:49:08.541Z,2068
2017-03-29T11:50:08.750Z,1696
2017-03-29T11:51:08.732Z,1460
2017-03-29T11:52:08.761Z,1276
2017-03-29T11:53:08.797Z,1164
2017-03-29T11:54:08.775Z,1136
2017-03-29T11:55:08.745Z,1132
2017-03-29T11:56:08.628Z,1168
2017-03-29T11:57:08.635Z,1432
2017-03-29T11:58:08.644Z,1524
2017-03-29T11:59:08.518Z,1440
2017-03-29T12:00:09.045Z,1440
2017-03-29T12:01:08.880Z,1504
2017-03-29T12:02:08.900Z,1564
2017-03-29T12:03:08.917Z,1496
2017-03-29T12:04:08.949Z,1420
2017-03-29T12:05:08.965Z,1448
2017-03-29T12:06:08.669Z,1372
2017-03-29T12:07:09.019Z,1244
2017-03-29T12:08:09.265Z,1172
2017-03-29T12:09:08.741Z,1356
2017-03-29T12:10:09.086Z,1424
2017-03-29T12:11:08.786Z,1288
2017-03-29T12:12:08.810Z,1344
2017-03-29T12:13:09.144Z,1468
2017-03-29T12:14:08.851Z,1536
2017-03-29T12:15:09.188Z,1620
2017-03-29T12:16:09.210Z,1672
2017-03-29T12:17:08.919Z,1540
2017-03-29T12:18:09.249Z,1344
2017-03-29T12:19:08.956Z,1288
2017-03-29T12:20:09.292Z,1276
2017-03-29T12:21:09.318Z,1188
2017-03-29T12:22:09.037Z,1312
2017-03-29T12:23:08.420Z,1388
2017-03-29T12:24:09.388Z,1648
2017-03-29T12:25:09.411Z,1316
2017-03-29T12:26:09.110Z,1168
2017-03-29T12:27:09.456Z,1076
2017-03-29T12:28:09.469Z,1020
2017-03-29T12:29:09.521Z,1020
2017-03-29T12:30:09.530Z,1284
2017-03-29T12:31:09.535Z,1396
2017-03-29T12:32:09.586Z,1480
2017-03-29T12:33:09.583Z,1412
2017-03-29T12:34:09.600Z,1324
2017-03-29T12:35:09.632Z,1532
2017-03-29T12:36:09.023Z,1628
2017-03-29T12:37:09.356Z,1768
2017-03-29T12:38:09.374Z,1804
2017-03-29T12:39:09.743Z,1436
2017-03-29T12:40:09.737Z,1092
2017-03-29T12:41:09.758Z,1172
2017-03-29T12:42:09.459Z,1384
2017-03-29T12:43:09.805Z,1656
2017-03-29T12:44:09.511Z,1924
2017-03-29T12:45:09.918Z,1952
2017-03-29T12:46:09.866Z,1920
2017-03-29T12:47:09.889Z,1896
2017-03-29T12:48:09.596Z,1972
2017-03-29T12:49:09.618Z,1684
2017-03-29T12:50:09.690Z,1684
2017-03-29T12:51:09.982Z,1560
2017-03-29T12:52:09.684Z,1696
2017-03-29T12:53:10.021Z,2512
2017-03-29T12:54:10.045Z,2708
2017-03-29T12:55:09.757Z,2320
2017-03-29T12:56:10.147Z,1524
2017-03-29T12:57:10.109Z,1068
2017-03-29T12:58:09.821Z,1028
2017-03-29T12:59:09.843Z,1320
2017-03-29T13:00:10.176Z,1584
2017-03-29T13:01:10.197Z,1516
2017-03-29T13:02:10.217Z,1532
2017-03-29T13:03:10.263Z,1640
2017-03-29T13:04:10.266Z,1672
2017-03-29T13:05:09.976Z,1892
2017-03-29T13:06:10.311Z,2068
2017-03-29T13:07:10.022Z,2240
2017-03-29T13:08:09.729Z,2592
2017-03-29T13:09:10.068Z,2732
2017-03-29T13:10:10.126Z,2632
2017-03-29T13:11:10.127Z,2492
2017-03-29T13:12:09.819Z,2188
2017-03-29T13:13:10.490Z,2148
2017-03-29T13:14:09.857Z,2188
2017-03-29T13:15:10.510Z,2316
2017-03-29T13:16:10.528Z,2756
2017-03-29T13:17:10.558Z,2884
2017-03-29T13:18:10.259Z,2992
2017-03-29T13:19:10.592Z,3056
2017-03-29T13:20:10.617Z,3044
2017-03-29T13:21:10.641Z,2980
2017-03-29T13:22:10.663Z,2904
2017-03-29T13:23:10.689Z,2784
2017-03-29T13:24:10.711Z,2684
2017-03-29T13:25:10.108Z,2292
2017-03-29T13:26:10.759Z,2040
2017-03-29T13:27:10.461Z,2312
2017-03-29T13:28:10.488Z,1832
2017-03-29T13:29:10.821Z,1620
2017-03-29T13:30:10.846Z,1704
2017-03-29T13:31:10.920Z,1584
2017-03-29T13:32:10.579Z,1364
2017-03-29T13:33:10.906Z,1404
2017-03-29T13:34:10.939Z,1328
2017-03-29T13:35:10.971Z,1488
2017-03-29T13:36:10.981Z,1824
2017-03-29T13:37:10.687Z,1724
2017-03-29T13:38:11.033Z,1628
2017-03-29T13:39:11.056Z,1656
2017-03-29T13:40:11.073Z,1480
2017-03-29T13:41:11.087Z,1396
2017-03-29T13:42:10.797Z,1412
2017-03-29T13:43:11.128Z,1328
2017-03-29T13:44:11.150Z,1184
2017-03-29T13:45:11.208Z,1352
2017-03-29T13:46:11.207Z,1556
2017-03-29T13:47:11.225Z,1600
2017-03-29T13:48:11.243Z,1564
2017-03-29T13:49:11.271Z,1560
2017-03-29T13:50:10.980Z,1164
2017-03-29T13:51:11.005Z,1132
2017-03-29T13:52:11.343Z,908
2017-03-29T13:53:11.373Z,828
2017-03-29T13:54:11.383Z,884
2017-03-29T13:55:11.127Z,848
2017-03-29T13:56:11.428Z,864